This is the latest recevied weather packets stored in our database for station/object KR8N. If no packets are shown the sender has not sent any weather packets the latest 10 day(s).
| Time | Temp. | Humidity | Pressure | Rain* | Wind** | Luminosity | Snow |
|---|---|---|---|---|---|---|---|
| 1777392998 | 21.11° C | 60% | 1020.1 hPa | 0 mm | - | 655 W/m² | - |
| 1777392693 | 20.56° C | 64% | 1020.4 hPa | 0 mm | - | 664 W/m² | - |
| 1777392391 | 21.11° C | 61% | 1020.3 hPa | 0 mm | - | 461 W/m² | - |
| 1777392086 | 20.56° C | 64% | 1020 hPa | 0 mm | - | 556 W/m² | - |
| 1777391780 | 20° C | 62% | 1020.2 hPa | 0 mm | - | 523 W/m² | - |
| 1777391477 | 20° C | 62% | 1020 hPa | 0 mm | - | 431 W/m² | - |
| 1777391173 | 20.56° C | 62% | 1020 hPa | 0 mm | - | 575 W/m² | - |
| 1777390869 | 20.56° C | 61% | 1020.1 hPa | 0 mm | - | 376 W/m² | - |
| 1777390567 | 20.56° C | 63% | 1019.9 hPa | 0 mm | - | 597 W/m² | - |
| 1777390263 | 19.44° C | 66% | 1020.1 hPa | 0 mm | - | 689 W/m² | - |
| 1777389959 | 18.89° C | 67% | 1020 hPa | 0 mm | - | 384 W/m² | - |
| 1777389655 | 18.89° C | 66% | 1019.9 hPa | 0 mm | - | 302 W/m² | - |
| 1777389352 | 19.44° C | 64% | 1019.9 hPa | 0 mm | - | 282 W/m² | - |
| 1777389050 | 19.44° C | 65% | 1019.7 hPa | 0 mm | - | 325 W/m² | - |
| 1777388747 | 20° C | 64% | 1019.4 hPa | 0 mm | - | 395 W/m² | - |
| 1777388444 | 19.44° C | 66% | 1019.5 hPa | 0 mm | - | 573 W/m² | - |
| 1777388144 | 20.56° C | 64% | 1019.2 hPa | 0 mm | - | 459 W/m² | - |
| 1777387839 | 19.44° C | 68% | 1019 hPa | 0 mm | - | 772 W/m² | - |
| 1777387537 | 18.89° C | 65% | 1019 hPa | 0 mm | - | 690 W/m² | - |
| 1777387233 | 18.89° C | 66% | 1018.8 hPa | 0 mm | - | 663 W/m² | - |
| 1777386927 | 18.89° C | 70% | 1019 hPa | 0 mm | - | 642 W/m² | - |
| 1777386625 | 18.89° C | 69% | 1019 hPa | 0 mm | - | 625 W/m² | - |
| 1777386322 | 18.33° C | 68% | 1019 hPa | 0 mm | - | 608 W/m² | - |
| 1777386020 | 18.33° C | 70% | 1019 hPa | 0 mm | - | 591 W/m² | - |
| 1777385716 | 17.78° C | 70% | 1018.9 hPa | 0 mm | - | 565 W/m² | - |
* Rain latest hour (hover to see other rain measurements)
** Current wind speed in m/s (hover to see current wind gust speed)